createdAt,value
2022-09-03T00:00:51.985Z,997.644165
2022-09-03T00:01:49.361Z,997.6867065
2022-09-03T00:02:48.778Z,997.6837769
2022-09-03T00:03:45.016Z,997.6704102
2022-09-03T00:04:45.145Z,997.6489258
2022-09-03T00:06:44.316Z,997.5924072
2022-09-03T00:07:38.712Z,997.6325073
2022-09-03T00:08:40.770Z,997.6777954
2022-09-03T00:09:33.792Z,997.6884155
2022-09-03T00:11:33.508Z,997.65625
2022-09-03T00:12:30.760Z,997.6963501
2022-09-03T00:13:33.037Z,997.6375122
2022-09-03T00:14:33.762Z,997.6932983
2022-09-03T00:15:37.548Z,997.6881104
2022-09-03T00:16:36.605Z,997.6829834
2022-09-03T00:17:35.760Z,997.6379395
2022-09-03T00:18:44.603Z,997.6057739
2022-09-03T00:19:40.723Z,997.5761108
2022-09-03T00:21:42.481Z,997.6375122
2022-09-03T00:22:46.368Z,997.6265869
2022-09-03T00:23:40.627Z,997.6265869
2022-09-03T00:24:40.834Z,997.5861816
2022-09-03T00:25:36.501Z,997.5487671
2022-09-03T00:26:40.495Z,997.5995483
2022-09-03T00:27:37.648Z,997.5406494
2022-09-03T00:28:38.145Z,997.5003052
2022-09-03T00:29:34.333Z,997.5992432
2022-09-03T00:31:35.543Z,997.5136108
2022-09-03T00:32:39.388Z,997.4465332
2022-09-03T00:33:33.680Z,997.475647
2022-09-03T00:34:34.373Z,997.475647
2022-09-03T00:35:28.623Z,997.5054932
2022-09-03T00:36:31.757Z,997.4974976
2022-09-03T00:37:23.696Z,997.5103149
2022-09-03T00:38:24.722Z,997.5825195
2022-09-03T00:39:19.369Z,997.4675293
2022-09-03T00:40:21.616Z,997.5103149
2022-09-03T00:41:15.945Z,997.5023193
2022-09-03T00:42:20.261Z,997.4887695
2022-09-03T00:43:18.349Z,997.5421753
2022-09-03T00:45:03.786Z,997.5509644
2022-09-03T00:45:49.185Z,997.5406494
2022-09-03T00:46:46.350Z,997.6074219
2022-09-03T00:47:49.916Z,997.5324097
2022-09-03T00:48:58.039Z,997.5270386
2022-09-03T00:50:00.454Z,997.5321655
2022-09-03T00:51:56.957Z,997.5473633
2022-09-03T00:52:55.254Z,997.5151367
2022-09-03T00:53:57.801Z,997.4990845
2022-09-03T00:54:52.250Z,997.501709
2022-09-03T00:55:51.371Z,997.5579834
2022-09-03T00:56:49.350Z,997.4723511
2022-09-03T00:57:49.754Z,997.5685425
2022-09-03T00:58:46.796Z,997.5203247
2022-09-03T00:59:49.517Z,997.5203247
2022-09-03T01:00:46.287Z,997.4562378
2022-09-03T01:01:48.868Z,997.5575562
2022-09-03T01:02:45.667Z,997.5147705
2022-09-03T01:03:54.963Z,997.4398193
2022-09-03T01:04:50.208Z,997.4746704
2022-09-03T01:05:45.554Z,997.5147705
2022-09-03T01:06:54.277Z,997.4695435
2022-09-03T01:07:50.008Z,997.5575562
2022-09-03T01:08:47.448Z,997.5630493
2022-09-03T01:09:46.794Z,997.5072021
2022-09-03T01:10:44.069Z,997.4859619
2022-09-03T01:11:45.670Z,997.531189
2022-09-03T01:12:38.201Z,997.4592285
2022-09-03T01:13:43.667Z,997.4671631
2022-09-03T01:14:36.343Z,997.4777832
2022-09-03T01:15:38.649Z,997.5100098
2022-09-03T01:16:33.099Z,997.5075073
2022-09-03T01:17:36.606Z,997.5367432
2022-09-03T01:18:33.013Z,997.5448608
2022-09-03T01:19:41.751Z,997.5739746
2022-09-03T01:21:29.256Z,997.5615845
2022-09-03T01:22:08.899Z,997.5245361
2022-09-03T01:23:13.142Z,997.5970459
2022-09-03T01:24:07.837Z,997.5360107
2022-09-03T01:25:10.036Z,997.552124
2022-09-03T01:26:07.437Z,997.5438843
2022-09-03T01:27:04.819Z,997.5466919
2022-09-03T01:28:07.916Z,997.5596924
2022-09-03T01:29:09.283Z,997.5275269
2022-09-03T01:30:08.796Z,997.5303345
2022-09-03T01:31:06.585Z,997.4793091
2022-09-03T01:32:14.852Z,997.4710693
2022-09-03T01:33:07.253Z,997.5003052
2022-09-03T01:34:07.726Z,997.5084229
2022-09-03T01:35:06.883Z,997.6071167
2022-09-03T01:37:05.531Z,997.4893799
2022-09-03T01:38:09.464Z,997.5454712
2022-09-03T01:39:01.812Z,997.5267334
2022-09-03T01:40:04.415Z,997.5081177
2022-09-03T01:40:56.690Z,997.5563965
2022-09-03T01:41:55.661Z,997.5321655
2022-09-03T01:42:50.934Z,997.5136108
2022-09-03T01:43:53.194Z,997.5054932
2022-09-03T01:44:56.950Z,997.5161133
2022-09-03T01:45:57.662Z,997.5476685
2022-09-03T01:46:58.925Z,997.4887695
2022-09-03T01:47:51.999Z,997.5290527
2022-09-03T01:49:37.299Z,997.4656372
2022-09-03T01:51:32.334Z,997.4768677
2022-09-03T01:52:39.416Z,997.4981079
2022-09-03T01:53:35.866Z,997.5005493
2022-09-03T01:54:40.720Z,997.4710693
2022-09-03T01:55:32.978Z,997.4255981
2022-09-03T01:56:35.106Z,997.4710693
2022-09-03T01:57:35.305Z,997.4095459
2022-09-03T01:58:34.453Z,997.4681396
2022-09-03T01:59:29.066Z,997.4656372
2022-09-03T02:00:28.592Z,997.4282837
2022-09-03T02:01:24.522Z,997.4762573
2022-09-03T02:02:25.808Z,997.4707642
2022-09-03T02:03:32.026Z,997.4013062
2022-09-03T02:03:57.056Z,997.5187378
2022-09-03T02:04:52.725Z,997.4301758
2022-09-03T02:05:56.761Z,997.4787598
2022-09-03T02:06:52.929Z,997.4813843
2022-09-03T02:07:54.147Z,997.4301758
2022-09-03T02:08:50.795Z,997.4328613
2022-09-03T02:09:54.591Z,997.4353027
2022-09-03T02:10:50.032Z,997.4168091
2022-09-03T02:11:51.769Z,997.451416
2022-09-03T02:12:50.008Z,997.4031372
2022-09-03T02:13:49.154Z,997.421936
2022-09-03T02:14:43.446Z,997.3952637
2022-09-03T02:15:47.089Z,997.3685303
2022-09-03T02:16:44.307Z,997.3764038
2022-09-03T02:17:42.858Z,997.3685303
2022-09-03T02:18:38.254Z,997.2641602
2022-09-03T02:19:40.326Z,997.3387451
2022-09-03T02:20:38.485Z,997.4058838
2022-09-03T02:21:40.218Z,997.3922119
2022-09-03T02:22:36.701Z,997.4003906
2022-09-03T02:23:36.494Z,997.4082642
2022-09-03T02:24:33.215Z,997.3948975
2022-09-03T02:25:32.861Z,997.3736572
2022-09-03T02:26:27.317Z,997.4456177
2022-09-03T02:28:17.861Z,997.4435425
2022-09-03T02:28:57.757Z,997.4092407
2022-09-03T02:29:56.861Z,997.3718872
2022-09-03T02:30:55.340Z,997.3800659
2022-09-03T02:31:53.704Z,997.4279785
2022-09-03T02:32:48.275Z,997.4246826
2022-09-03T02:33:48.216Z,997.5129395
2022-09-03T02:34:54.038Z,997.4407959
2022-09-03T02:35:55.465Z,997.406189
2022-09-03T02:36:53.257Z,997.4137573
2022-09-03T02:37:51.292Z,997.357605
2022-09-03T02:38:48.300Z,997.4346924
2022-09-03T02:39:48.038Z,997.3599854
2022-09-03T02:40:51.662Z,997.3521729
2022-09-03T02:41:50.867Z,997.3278198
2022-09-03T02:42:49.669Z,997.3411865
2022-09-03T02:43:45.820Z,997.3569336
2022-09-03T02:44:45.664Z,997.3781128
2022-09-03T02:45:40.213Z,997.3754883
2022-09-03T02:46:44.132Z,997.3699951
2022-09-03T02:47:38.229Z,997.3833008
2022-09-03T02:48:40.533Z,997.2871094
2022-09-03T02:49:32.982Z,997.3217163
2022-09-03T02:50:31.344Z,997.2764893
2022-09-03T02:51:33.013Z,997.3162231
2022-09-03T02:52:29.992Z,997.3374023
2022-09-03T02:53:34.842Z,997.3134155
2022-09-03T02:54:33.042Z,997.2892456
2022-09-03T02:55:28.310Z,997.3213501
2022-09-03T02:56:32.332Z,997.2785645
2022-09-03T02:57:27.863Z,997.3189087
2022-09-03T02:58:25.936Z,997.3723145
2022-09-03T02:59:22.223Z,997.2921753
2022-09-03T03:00:21.332Z,997.335022
2022-09-03T03:01:23.863Z,997.310791
2022-09-03T03:02:22.080Z,997.3319702
2022-09-03T03:03:18.617Z,997.350769
2022-09-03T03:04:18.666Z,997.28125
2022-09-03T03:05:18.003Z,997.326416
2022-09-03T03:06:21.819Z,997.3209229
2022-09-03T03:07:16.125Z,997.2993774
2022-09-03T03:08:42.661Z,997.2809448
2022-09-03T03:09:26.531Z,997.2781372
2022-09-03T03:10:29.300Z,997.3209229
2022-09-03T03:11:30.022Z,997.3154907
2022-09-03T03:12:28.127Z,997.3287354
2022-09-03T03:13:36.706Z,997.3314819
2022-09-03T03:14:36.848Z,997.3711548
2022-09-03T03:15:38.445Z,997.2910767
2022-09-03T03:16:36.838Z,997.27771
2022-09-03T03:17:34.675Z,997.2907104
2022-09-03T03:18:36.794Z,997.3362427
2022-09-03T03:19:34.680Z,997.3040771
2022-09-03T03:20:36.547Z,997.3200684
2022-09-03T03:21:37.512Z,997.3040771
2022-09-03T03:22:32.876Z,997.2718506
2022-09-03T03:23:35.292Z,997.3381958
2022-09-03T03:24:34.373Z,997.2768555
2022-09-03T03:25:29.712Z,997.274231
2022-09-03T03:26:31.508Z,997.2768555
2022-09-03T03:27:27.106Z,997.2980957
2022-09-03T03:28:41.355Z,997.2446899
2022-09-03T03:29:35.749Z,997.2285767
2022-09-03T03:31:31.972Z,997.2259521
2022-09-03T03:32:35.713Z,997.2631836
2022-09-03T03:33:37.990Z,997.2254639
2022-09-03T03:34:46.556Z,997.2628174
2022-09-03T03:35:45.024Z,997.2337646
2022-09-03T03:36:44.054Z,997.2387695
2022-09-03T03:37:44.052Z,997.2145386
2022-09-03T03:38:39.129Z,997.2250977
2022-09-03T03:39:39.340Z,997.2705688
2022-09-03T03:40:37.473Z,997.2332764
2022-09-03T03:41:38.446Z,997.2011108
2022-09-03T03:42:34.952Z,997.2277832
2022-09-03T03:43:37.137Z,997.1956177
2022-09-03T03:44:38.072Z,997.2513428
2022-09-03T03:45:42.772Z,997.22229
2022-09-03T03:46:38.529Z,997.1900635
2022-09-03T03:47:38.266Z,997.1445923
2022-09-03T03:48:40.326Z,997.1740112
2022-09-03T03:50:24.708Z,997.1928711
2022-09-03T03:51:06.606Z,997.190918
2022-09-03T03:52:03.897Z,997.1776733
2022-09-03T03:53:03.335Z,997.1536865
2022-09-03T03:54:04.357Z,997.1506348
2022-09-03T03:54:05.600Z,997.1506348
2022-09-03T03:54:59.089Z,997.1344604
2022-09-03T03:55:56.804Z,997.2120972
2022-09-03T03:56:56.597Z,997.2678833
2022-09-03T03:57:53.882Z,997.2729492
2022-09-03T03:58:50.829Z,997.256897
2022-09-03T03:59:49.223Z,997.2167358
2022-09-03T04:00:46.844Z,997.2407837
2022-09-03T04:01:45.870Z,997.2112427
2022-09-03T04:02:42.809Z,997.1657715
2022-09-03T04:03:39.918Z,997.1868896
2022-09-03T04:04:36.786Z,997.098999
2022-09-03T04:05:35.664Z,997.0884399
2022-09-03T04:06:34.510Z,997.0535889
2022-09-03T04:07:31.492Z,997.0350952
2022-09-03T04:08:28.632Z,997.1229858
2022-09-03T04:09:25.639Z,997.0802612
2022-09-03T04:10:26.976Z,997.0245361
2022-09-03T04:11:31.019Z,997.1096191
2022-09-03T04:12:34.399Z,997.0664063
2022-09-03T04:13:32.293Z,997.0231323
2022-09-03T04:14:30.714Z,997.0730591
2022-09-03T04:15:28.209Z,996.9827271
2022-09-03T04:16:26.245Z,997.0463867
2022-09-03T04:17:25.366Z,997.0513916
2022-09-03T04:18:21.240Z,997.0670166
2022-09-03T04:19:25.378Z,997.0697021
2022-09-03T04:21:19.937Z,997.0348511
2022-09-03T04:22:16.648Z,996.9970093
2022-09-03T04:23:20.060Z,996.9997559
2022-09-03T04:24:20.606Z,997.0264282
2022-09-03T04:25:17.399Z,997.0370483
2022-09-03T04:26:20.558Z,997.0103149
2022-09-03T04:27:18.803Z,996.996582
2022-09-03T04:28:17.960Z,997.0710449
2022-09-03T04:29:16.786Z,997.0098267
2022-09-03T04:30:16.067Z,997.0976563
2022-09-03T04:32:14.692Z,997.1293945
2022-09-03T04:33:17.393Z,996.9743652
2022-09-03T04:34:29.840Z,997.0409546
2022-09-03T04:35:31.370Z,996.9554443
2022-09-03T04:36:29.403Z,996.973877
2022-09-03T04:37:30.534Z,997.0055542
2022-09-03T04:38:27.393Z,997.0266113
2022-09-03T04:39:24.887Z,997.0454102
2022-09-03T04:41:24.314Z,996.9838867
2022-09-03T04:42:29.788Z,997.0026855
2022-09-03T04:43:27.729Z,996.9993896
2022-09-03T04:44:25.652Z,997.0126343
2022-09-03T04:45:25.591Z,996.9832764
2022-09-03T04:46:23.710Z,996.9593506
2022-09-03T04:47:20.707Z,997.0231323
2022-09-03T04:48:20.301Z,997.007019
2022-09-03T04:49:15.156Z,996.9666138
2022-09-03T04:50:15.121Z,996.9666138
2022-09-03T04:51:12.598Z,996.9400024
2022-09-03T04:52:15.248Z,996.883728
2022-09-03T04:53:17.102Z,996.9871826
2022-09-03T04:54:19.521Z,996.9898682
2022-09-03T04:55:17.709Z,997.0164185
2022-09-03T04:56:09.658Z,996.944397
2022-09-03T04:57:09.479Z,997.0003052
2022-09-03T04:58:08.572Z,997.0053101
2022-09-03T04:59:07.423Z,997.0181274
2022-09-03T05:00:06.454Z,996.9941406
2022-09-03T05:01:07.876Z,997.0901489
2022-09-03T05:02:00.397Z,997.0523682
2022-09-03T05:03:04.558Z,997.0546875
2022-09-03T05:03:58.798Z,997.0653076
2022-09-03T05:04:58.650Z,997.057373
2022-09-03T05:05:52.946Z,997.0629883
2022-09-03T05:06:56.776Z,997.0701294
2022-09-03T05:07:58.515Z,997.0406494
2022-09-03T05:08:52.591Z,997.1310425
2022-09-03T05:09:51.423Z,997.059082
2022-09-03T05:11:49.464Z,997.0939331
2022-09-03T05:12:47.561Z,997.0856323
2022-09-03T05:13:48.184Z,997.1099854
2022-09-03T05:14:40.159Z,997.1365356
2022-09-03T05:15:41.969Z,997.1395874
2022-09-03T05:16:35.412Z,997.1049805
2022-09-03T05:17:37.794Z,997.0862427
2022-09-03T05:18:31.510Z,997.0862427
2022-09-03T05:19:33.224Z,997.0701294
2022-09-03T05:20:29.753Z,997.102417
2022-09-03T05:22:07.640Z,997.1135864
2022-09-03T05:22:47.573Z,997.1168823
2022-09-03T05:23:49.296Z,997.0424805
2022-09-03T05:24:53.084Z,997.1490479
2022-09-03T05:26:48.949Z,997.0658569
2022-09-03T05:27:46.792Z,997.1112671
2022-09-03T05:28:48.397Z,996.9885864
2022-09-03T05:29:47.873Z,997.0546875
2022-09-03T05:30:47.925Z,997.0869751
2022-09-03T05:31:50.302Z,997.116272
2022-09-03T05:32:43.206Z,997.1428223
2022-09-03T05:33:49.236Z,997.0307007
2022-09-03T05:34:42.220Z,997.0918579
2022-09-03T05:36:42.761Z,997.1240845
2022-09-03T05:37:38.160Z,997.116272
2022-09-03T05:38:41.638Z,997.1240845
2022-09-03T05:39:36.003Z,997.0974731
2022-09-03T05:40:35.091Z,997.145752
2022-09-03T05:41:32.203Z,997.1273193
2022-09-03T05:42:36.341Z,997.0740356
2022-09-03T05:43:31.633Z,997.0474243
2022-09-03T05:44:34.327Z,997.1085815
2022-09-03T05:46:27.776Z,997.0931396
2022-09-03T05:47:26.839Z,997.1279907
2022-09-03T05:48:29.953Z,997.1464233
2022-09-03T05:49:28.490Z,997.1464233
2022-09-03T05:50:31.246Z,997.1707764
2022-09-03T05:51:29.907Z,997.1279907
2022-09-03T05:52:27.957Z,997.119751
2022-09-03T05:53:29.839Z,997.1013184
2022-09-03T05:54:25.306Z,997.1174927
2022-09-03T05:55:29.078Z,997.0509644
2022-09-03T05:56:23.172Z,997.1019287
2022-09-03T05:57:26.703Z,997.1526489
2022-09-03T05:58:19.410Z,997.0864258
2022-09-03T05:59:19.917Z,997.1637573
2022-09-03T06:00:15.215Z,997.067627
2022-09-03T06:01:18.230Z,997.0974731
2022-09-03T06:02:13.684Z,997.1054688
2022-09-03T06:03:18.001Z,997.1136475
2022-09-03T06:04:15.345Z,997.1297607
2022-09-03T06:05:15.303Z,997.1353149
2022-09-03T06:06:13.730Z,997.1037598
2022-09-03T06:07:56.663Z,997.2003174
2022-09-03T06:08:36.404Z,997.107666
2022-09-03T06:09:33.808Z,997.2391968
2022-09-03T06:10:36.545Z,997.1565552
2022-09-03T06:10:40.850Z,997.1565552
2022-09-03T06:10:41.290Z,997.1565552
2022-09-03T06:11:28.403Z,997.065918
2022-09-03T06:12:27.741Z,997.204834
2022-09-03T06:13:24.069Z,997.1942749
2022-09-03T06:14:23.627Z,997.1224976
2022-09-03T06:15:19.525Z,997.159668
2022-09-03T06:16:18.809Z,997.2103882
2022-09-03T06:16:27.193Z,997.2103882
2022-09-03T06:16:31.812Z,997.2103882
2022-09-03T06:17:18.388Z,997.1464844
2022-09-03T06:18:15.322Z,997.1763306
2022-09-03T06:19:14.472Z,997.1551514
2022-09-03T06:20:09.714Z,997.1657715
2022-09-03T06:21:11.557Z,997.1791992
2022-09-03T06:22:06.658Z,997.1818848
2022-09-03T06:23:01.192Z,997.1420288
2022-09-03T06:24:02.832Z,997.1557007
2022-09-03T06:25:02.835Z,997.2008667
2022-09-03T06:26:58.576Z,997.1741943
2022-09-03T06:27:53.773Z,997.1984253
2022-09-03T06:28:53.608Z,997.2121582
2022-09-03T06:29:51.728Z,997.1482544
2022-09-03T06:30:50.158Z,997.1055298
2022-09-03T06:31:49.378Z,997.1137695
2022-09-03T06:32:45.425Z,997.1564941
2022-09-03T06:33:42.158Z,997.111084
2022-09-03T06:34:42.194Z,997.1376343
2022-09-03T06:35:42.900Z,997.204834
2022-09-03T06:35:42.978Z,997.204834
2022-09-03T06:36:39.500Z,997.1381836
2022-09-03T06:37:37.151Z,997.1679688
2022-09-03T06:38:31.699Z,997.1975098
2022-09-03T06:39:32.492Z,997.2112427
2022-09-03T06:40:25.945Z,997.2246704
2022-09-03T06:41:22.026Z,997.1582642
2022-09-03T06:43:07.991Z,997.1187744
2022-09-03T06:43:47.468Z,997.1112671
2022-09-03T06:44:47.477Z,997.1972656
2022-09-03T06:45:46.644Z,997.1784668
2022-09-03T06:46:41.979Z,997.1972656
2022-09-03T06:47:42.107Z,997.1651001
2022-09-03T06:48:36.758Z,997.130127
2022-09-03T06:49:36.442Z,997.1035156
2022-09-03T06:51:30.747Z,997.1677856
2022-09-03T06:52:27.055Z,997.114502
2022-09-03T06:53:26.100Z,997.1921997
2022-09-03T06:53:32.180Z,997.1921997
2022-09-03T06:54:21.495Z,997.1442871
2022-09-03T06:55:20.849Z,997.1148682
2022-09-03T06:56:15.735Z,997.0563965
2022-09-03T06:57:15.353Z,997.197998
2022-09-03T06:58:10.886Z,997.2220459
2022-09-03T06:59:08.524Z,997.2114258
2022-09-03T07:00:07.893Z,997.2192993
2022-09-03T07:02:01.446Z,997.0968018
2022-09-03T07:03:00.392Z,997.0834351
2022-09-03T07:03:55.282Z,997.1235352
2022-09-03T07:04:53.782Z,997.1662598
2022-09-03T07:05:53.330Z,997.1398926
2022-09-03T07:06:48.438Z,997.1187744
2022-09-03T07:07:50.912Z,997.1564331
2022-09-03T07:08:43.334Z,997.1032715
2022-09-03T07:09:48.320Z,997.1169434
2022-09-03T07:11:36.515Z,997.1496582
2022-09-03T07:12:39.447Z,997.1663818
2022-09-03T07:13:33.825Z,997.211853
2022-09-03T07:14:32.959Z,997.190918
2022-09-03T07:16:30.347Z,997.140625
2022-09-03T07:17:26.188Z,997.1409302
2022-09-03T07:18:53.097Z,997.0770264
2022-09-03T07:19:31.381Z,997.1546021
2022-09-03T07:21:28.654Z,997.1846924
2022-09-03T07:22:31.294Z,997.0535889
2022-09-03T07:23:28.366Z,997.1046143
2022-09-03T07:24:24.470Z,997.1314697
2022-09-03T07:25:28.401Z,997.1447754
2022-09-03T07:27:22.854Z,997.1235962
2022-09-03T07:28:19.395Z,997.1157837
2022-09-03T07:29:21.226Z,997.0944824
2022-09-03T07:30:17.057Z,997.0809326
2022-09-03T07:32:15.252Z,997.0895996
2022-09-03T07:33:15.789Z,997.0736084
2022-09-03T07:34:12.978Z,997.0736694
2022-09-03T07:35:16.251Z,997.0655518
2022-09-03T07:37:14.406Z,997.0845337
2022-09-03T07:38:08.911Z,997.0923462
2022-09-03T07:39:09.935Z,997.0870361
2022-09-03T07:40:06.534Z,997.1673584
2022-09-03T07:41:05.353Z,997.1487427
2022-09-03T07:42:06.892Z,997.0281372
2022-09-03T07:43:03.655Z,997.1326294
2022-09-03T07:44:05.170Z,997.1968994
2022-09-03T07:45:01.930Z,997.2022095
2022-09-03T07:46:03.849Z,997.1593628
2022-09-03T07:47:00.912Z,997.1593018
2022-09-03T07:48:02.395Z,997.2020264
2022-09-03T07:48:59.669Z,997.1967163
2022-09-03T07:50:03.590Z,997.1590576
2022-09-03T07:50:57.911Z,997.1536865
2022-09-03T07:51:59.647Z,997.1350098
2022-09-03T07:52:56.793Z,997.1187744
2022-09-03T07:53:58.301Z,997.1268921
2022-09-03T07:54:55.141Z,997.1375122
2022-09-03T07:56:54.072Z,997.2014771
2022-09-03T07:57:56.549Z,997.1637573
2022-09-03T07:58:54.427Z,997.2332764
2022-09-03T07:59:55.366Z,997.1660156
2022-09-03T08:00:53.512Z,997.1820068
2022-09-03T08:01:57.683Z,997.173645
2022-09-03T08:02:52.283Z,997.178772
2022-09-03T08:03:54.622Z,997.1570435
2022-09-03T08:04:52.897Z,997.2078247
2022-09-03T08:05:53.909Z,997.1296997
2022-09-03T08:06:52.207Z,997.1535645
2022-09-03T08:08:31.272Z,997.1693726
2022-09-03T08:08:35.628Z,997.1693726
2022-09-03T08:09:10.938Z,997.1766357
2022-09-03T08:10:09.245Z,997.1013794
2022-09-03T08:12:05.631Z,997.2296753
2022-09-03T08:13:06.576Z,997.1864624
2022-09-03T08:14:02.303Z,997.1838379
2022-09-03T08:15:03.005Z,997.2129517
2022-09-03T08:16:59.545Z,997.15625
2022-09-03T08:17:55.763Z,997.1827393
2022-09-03T08:18:03.743Z,997.1827393
2022-09-03T08:18:05.990Z,997.1827393
2022-09-03T08:18:56.918Z,997.1257935
2022-09-03T08:19:53.890Z,997.060791
2022-09-03T08:21:50.322Z,997.2214966
2022-09-03T08:22:51.168Z,997.1646729
2022-09-03T08:23:47.501Z,997.1322021
2022-09-03T08:24:48.370Z,997.1317139
2022-09-03T08:26:51.378Z,997.2442017
2022-09-03T08:26:52.397Z,997.2442017
2022-09-03T08:27:44.715Z,997.1601563
2022-09-03T08:28:41.243Z,997.1729736
2022-09-03T08:29:42.540Z,997.1621704
2022-09-03T08:30:39.289Z,997.1699829
2022-09-03T08:31:40.457Z,997.1937256
2022-09-03T08:32:37.586Z,997.2468872
2022-09-03T08:33:38.337Z,997.1875
2022-09-03T08:34:34.928Z,997.2485352
2022-09-03T08:35:36.448Z,997.2268677
2022-09-03T08:35:57.677Z,997.1972656
2022-09-03T08:36:57.065Z,997.2902832
2022-09-03T08:37:58.614Z,997.142334
2022-09-03T08:38:55.300Z,997.2064209
2022-09-03T08:39:57.239Z,997.1707764
2022-09-03T08:40:53.876Z,997.2276001
2022-09-03T08:41:55.560Z,997.2212524
2022-09-03T08:42:52.316Z,997.2451782
2022-09-03T08:43:53.974Z,997.2904663
2022-09-03T08:44:51.259Z,997.2581177
2022-09-03T08:46:49.080Z,997.2492676
2022-09-03T08:47:50.551Z,997.1818848
2022-09-03T08:48:47.231Z,997.2779541
2022-09-03T08:49:49.437Z,997.1994019
2022-09-03T08:51:47.625Z,997.1907959
2022-09-03T08:52:44.871Z,997.1690674
2022-09-03T08:53:45.867Z,997.1690674
2022-09-03T08:54:42.863Z,997.2575684
2022-09-03T08:56:40.753Z,997.2228394
2022-09-03T08:58:16.083Z,997.1536865
2022-09-03T09:00:32.712Z,997.1383057
2022-09-03T09:02:14.211Z,997.2000122
2022-09-03T09:03:10.448Z,997.1651611
2022-09-03T09:04:11.310Z,997.1390381
2022-09-03T09:05:11.141Z,997.1281128
2022-09-03T09:05:14.307Z,997.1281128
2022-09-03T09:07:05.139Z,997.1281128
2022-09-03T09:08:05.772Z,997.1629028
2022-09-03T09:09:01.701Z,997.1629028
2022-09-03T09:10:02.701Z,997.1333008
2022-09-03T09:11:59.432Z,997.1820068
2022-09-03T09:12:57.789Z,997.2249146
2022-09-03T09:13:53.973Z,997.2225952
2022-09-03T09:14:55.187Z,997.2357788
2022-09-03T09:16:51.709Z,997.166748
2022-09-03T09:17:48.014Z,997.206543
2022-09-03T09:18:48.448Z,997.1748657
2022-09-03T09:19:44.090Z,997.2307739
2022-09-03T09:20:47.337Z,997.1827393
2022-09-03T09:21:41.712Z,997.0960693
2022-09-03T09:22:41.483Z,997.1710815
2022-09-03T09:23:37.431Z,997.1273193
2022-09-03T09:24:38.274Z,997.1916504
2022-09-03T09:25:34.448Z,997.1646729
2022-09-03T09:27:33.581Z,997.1818848
2022-09-03T09:28:29.555Z,997.1362305
2022-09-03T09:29:33.038Z,997.1682129
2022-09-03T09:30:26.512Z,997.1521606
2022-09-03T09:32:23.235Z,997.1003418
2022-09-03T09:33:26.674Z,997.0952148
2022-09-03T09:34:20.590Z,997.1143799
2022-09-03T09:35:20.817Z,997.1280518
2022-09-03T09:37:16.623Z,997.0901489
2022-09-03T09:38:46.515Z,997.0772705
2022-09-03T09:39:21.128Z,997.0393677
2022-09-03T09:40:19.193Z,997.0691528
2022-09-03T09:41:19.473Z,997.1237793
2022-09-03T09:42:14.614Z,997.0758057
2022-09-03T09:43:15.312Z,997.0844727
2022-09-03T09:44:10.870Z,997.1121826
2022-09-03T09:44:15.896Z,997.1121826
2022-09-03T09:45:10.841Z,997.1289063
2022-09-03T09:47:06.250Z,997.0598145
2022-09-03T09:48:01.739Z,997.2111206
2022-09-03T09:49:04.320Z,997.2438965
2022-09-03T09:49:56.961Z,997.1688843
2022-09-03T09:50:59.957Z,997.1747437
2022-09-03T09:51:52.508Z,997.2075195
2022-09-03T09:52:52.280Z,997.1727295
2022-09-03T09:53:50.442Z,997.1325684
2022-09-03T09:54:47.404Z,997.1812744
2022-09-03T09:55:47.083Z,997.1063843
2022-09-03T09:57:42.161Z,997.163269
2022-09-03T09:58:37.766Z,997.1690674
2022-09-03T09:59:37.783Z,997.1557617
2022-09-03T10:00:33.138Z,997.2473145
2022-09-03T10:02:28.157Z,997.1615601
2022-09-03T10:03:30.134Z,997.2909546
2022-09-03T10:04:22.922Z,997.2561646
2022-09-03T10:05:25.393Z,997.2210693
2022-09-03T10:07:20.722Z,997.1972656
2022-09-03T10:08:14.130Z,997.1890869
2022-09-03T10:09:14.515Z,997.2619019
2022-09-03T10:10:15.152Z,997.2459106
2022-09-03T10:11:08.594Z,997.2299194
2022-09-03T10:12:08.413Z,997.2728271
2022-09-03T10:13:03.958Z,997.2537231
2022-09-03T10:14:07.395Z,997.2183838
2022-09-03T10:15:00.670Z,997.1907959
2022-09-03T10:17:01.671Z,997.2736206
2022-09-03T10:17:54.699Z,997.1820068
2022-09-03T10:18:57.680Z,997.2329712
2022-09-03T10:19:50.898Z,997.2946777
2022-09-03T10:21:46.763Z,997.2089233
2022-09-03T10:23:23.884Z,997.1785889
2022-09-03T10:24:07.291Z,997.1887207
2022-09-03T10:25:03.186Z,997.1209106
2022-09-03T10:26:58.373Z,997.1856079
2022-09-03T10:28:00.598Z,997.1864014
2022-09-03T10:28:56.841Z,997.1434326
2022-09-03T10:29:53.587Z,997.2562256
2022-09-03T10:30:49.069Z,997.2163086
2022-09-03T10:31:51.662Z,997.1812744
2022-09-03T10:32:48.584Z,997.2003174
2022-09-03T10:33:49.282Z,997.1035767
2022-09-03T10:34:42.653Z,997.2380981
2022-09-03T10:35:45.379Z,997.1870117
2022-09-03T10:36:37.991Z,997.197998
2022-09-03T10:37:35.457Z,997.217041
2022-09-03T10:38:34.929Z,997.1901855
2022-09-03T10:39:30.234Z,997.2089233
2022-09-03T10:40:27.669Z,997.2089233
2022-09-03T10:42:22.546Z,997.1740723
2022-09-03T10:43:23.205Z,997.1740723
2022-09-03T10:44:18.866Z,997.2357788
2022-09-03T10:45:18.471Z,997.2363892
2022-09-03T10:47:13.158Z,997.1472168
2022-09-03T10:48:08.280Z,997.1305542
2022-09-03T10:49:10.328Z,997.1734619
2022-09-03T10:50:02.750Z,997.1543579
2022-09-03T10:51:58.454Z,997.2163086
2022-09-03T10:53:00.251Z,997.1893921
2022-09-03T10:53:54.374Z,997.1595459
2022-09-03T10:54:55.881Z,997.1702881
2022-09-03T10:55:48.337Z,997.1465454
2022-09-03T10:57:46.953Z,997.1158447
2022-09-03T10:58:28.225Z,997.225769
2022-09-03T10:59:30.170Z,997.1989136
2022-09-03T11:00:26.650Z,997.2554932
2022-09-03T11:02:27.813Z,997.248291
2022-09-03T11:03:30.197Z,997.2803345
2022-09-03T11:04:26.787Z,997.2156372
2022-09-03T11:05:28.122Z,997.361084
2022-09-03T11:06:25.210Z,997.2779541
2022-09-03T11:07:26.417Z,997.3239136
2022-09-03T11:08:25.498Z,997.3157959
2022-09-03T11:09:23.268Z,997.3157959
2022-09-03T11:10:24.749Z,997.2380981
2022-09-03T11:10:30.868Z,997.2380981
2022-09-03T11:12:22.587Z,997.2940674
2022-09-03T11:13:25.858Z,997.2779541
2022-09-03T11:14:20.534Z,997.2860718
2022-09-03T11:15:27.706Z,997.2779541
2022-09-03T11:17:18.272Z,997.3908081
2022-09-03T11:18:19.783Z,997.2670288
2022-09-03T11:19:17.821Z,997.355957
2022-09-03T11:20:18.115Z,997.2998657
2022-09-03T11:22:20.729Z,997.3484497